Time;durP1;ratioP1;P1;durP2;ratioP2;P2;SDS_P1;SDS_P2;PMS_P1;PMS_P2;Temp;Humidity;BMP_temperature;BMP_pressure;BME280_temperature;BME280_humidity;BME280_pressure;Samples;Min_cycle;Max_cycle;Signal;HPM_P1;HPM_P2
2023/06/29 00:02:53;;;;;;;17.90;16.80;;;19.80;99.90;;;;;;2615280;54;20395;-72
2023/06/29 00:08:41;;;;;;;16.47;15.43;;;19.90;99.90;;;;;;2615199;39;20557;-72
2023/06/29 00:14:28;;;;;;;16.50;15.40;;;19.80;99.90;;;;;;2614590;54;20146;-72
2023/06/29 00:20:17;;;;;;;17.00;15.90;;;19.80;99.90;;;;;;2613556;54;20134;-72
2023/06/29 00:26:05;;;;;;;17.00;15.80;;;19.80;99.90;;;;;;2613465;54;20464;-72
2023/06/29 00:31:53;;;;;;;18.70;17.10;;;19.80;99.90;;;;;;2614291;54;20139;-71
2023/06/29 00:37:43;;;;;;;18.23;16.60;;;19.80;99.90;;;;;;2612281;54;20537;-72
2023/06/29 00:47:27;;;;;;;16.60;15.50;;;19.70;99.90;;;;;;2613987;54;20579;-70
2023/06/29 00:53:15;;;;;;;16.07;15.07;;;19.60;99.90;;;;;;2612354;54;20379;-71
2023/06/29 00:59:02;;;;;;;16.57;15.27;;;19.60;99.90;;;;;;2615441;39;20521;-71
2023/06/29 01:04:50;;;;;;;18.00;16.70;;;19.60;99.90;;;;;;2613176;54;20143;-70
2023/06/29 01:10:38;;;;;;;15.83;14.83;;;19.60;99.90;;;;;;2614085;54;20370;-72
2023/06/29 01:16:26;;;;;;;16.70;15.50;;;19.60;99.90;;;;;;2614032;54;20161;-71
2023/06/29 01:22:24;;;;;;;16.47;15.17;;;19.60;99.90;;;;;;2611173;54;20153;-71
2023/06/29 01:28:12;;;;;;;16.40;15.30;;;19.50;99.90;;;;;;2613363;39;20782;-70
2023/06/29 01:34:00;;;;;;;16.77;15.60;;;19.50;99.90;;;;;;2612824;54;20475;-70
2023/06/29 01:39:59;;;;;;;16.77;15.67;;;19.40;99.90;;;;;;2613712;54;20158;-71
2023/06/29 01:42:58;;;;;;;17.07;15.70;;;19.40;99.90;;;;;;2613943;54;20957;-70
2023/06/29 01:45:25;;;;;;;17.13;15.87;;;19.40;99.90;;;;;;2613378;54;20502;-71
2023/06/29 01:51:13;;;;;;;16.77;15.87;;;19.40;99.90;;;;;;2613608;54;20391;-71
2023/06/29 01:57:05;;;;;;;17.40;16.17;;;19.40;99.90;;;;;;2612749;54;20239;-71
2023/06/29 02:02:53;;;;;;;17.50;16.27;;;19.40;99.90;;;;;;2614667;54;20423;-72
2023/06/29 02:08:42;;;;;;;18.50;16.67;;;19.40;99.90;;;;;;2615140;47;20628;-71
2023/06/29 02:14:30;;;;;;;16.47;15.37;;;19.40;99.90;;;;;;2612700;54;20363;-72
2023/06/29 02:20:17;;;;;;;16.50;15.03;;;19.40;99.90;;;;;;2613621;54;20743;-72
2023/06/29 02:26:05;;;;;;;17.23;16.03;;;19.40;99.90;;;;;;2615213;54;20158;-72
2023/06/29 02:31:53;;;;;;;17.77;16.33;;;19.40;99.90;;;;;;2613970;54;20153;-72
2023/06/29 02:37:40;;;;;;;17.17;15.97;;;19.30;99.90;;;;;;2614267;39;20567;-72
2023/06/29 02:47:25;;;;;;;18.30;16.83;;;19.20;99.90;;;;;;2614247;54;20438;-73
2023/06/29 02:53:16;;;;;;;16.80;15.70;;;19.20;99.90;;;;;;2614611;54;20375;-71
2023/06/29 02:59:03;;;;;;;17.13;15.70;;;19.30;99.90;;;;;;2613555;54;20405;-71
2023/06/29 03:04:51;;;;;;;18.10;16.90;;;19.30;99.90;;;;;;2614000;54;20130;-71
2023/06/29 03:10:39;;;;;;;17.10;15.90;;;19.30;99.90;;;;;;2613572;54;20150;-72
2023/06/29 03:16:27;;;;;;;19.13;17.17;;;19.30;99.90;;;;;;2613001;54;20212;-73
2023/06/29 03:22:14;;;;;;;18.30;16.73;;;19.30;99.90;;;;;;2614045;54;20640;-73
2023/06/29 03:28:02;;;;;;;18.23;16.87;;;19.30;99.90;;;;;;2614576;54;20114;-71
2023/06/29 03:33:50;;;;;;;17.10;15.90;;;19.60;99.90;;;;;;2613406;54;20227;-72
2023/06/29 03:39:38;;;;;;;16.93;15.90;;;19.60;99.90;;;;;;2614019;54;20165;-72
2023/06/29 03:42:57;;;;;;;17.73;16.40;;;19.70;99.90;;;;;;2613087;54;20431;-71
2023/06/29 03:45:24;;;;;;;18.10;16.80;;;19.80;99.90;;;;;;2614418;54;20427;-71
2023/06/29 03:51:11;;;;;;;17.10;15.90;;;19.80;99.90;;;;;;2613255;54;20396;-71
2023/06/29 03:56:59;;;;;;;17.07;15.77;;;19.80;99.90;;;;;;2614566;54;20186;-72
2023/06/29 04:02:47;;;;;;;17.60;16.00;;;19.80;99.90;;;;;;2614281;54;20391;-72
2023/06/29 04:05:50;;;;;;;16.90;15.40;;;19.80;99.90;;;;;;2612731;47;20922;-71
2023/06/29 04:08:16;;;;;;;16.77;15.67;;;19.80;99.90;;;;;;2613915;54;20154;-72
2023/06/29 04:14:04;;;;;;;16.30;15.10;;;19.80;99.90;;;;;;2613948;54;20396;-72
2023/06/29 04:19:52;;;;;;;15.00;13.80;;;19.80;99.90;;;;;;2613030;54;20160;-72
2023/06/29 04:25:42;;;;;;;16.87;15.47;;;19.90;99.90;;;;;;2612692;54;20134;-72
2023/06/29 04:31:30;;;;;;;16.00;14.47;;;20.00;99.90;;;;;;2614049;54;20396;-72
2023/06/29 04:37:17;;;;;;;16.23;14.73;;;19.80;99.90;;;;;;2612892;39;20482;-72
2023/06/29 04:49:52;;;;;;;17.20;15.80;;;20.00;99.90;;;;;;2613973;54;20514;-72
2023/06/29 04:55:40;;;;;;;18.20;16.80;;;20.00;99.90;;;;;;2614065;54;20394;-72
2023/06/29 05:01:28;;;;;;;16.37;15.37;;;20.10;99.90;;;;;;2613291;31;20677;-72
2023/06/29 05:07:16;;;;;;;15.67;14.57;;;20.10;99.90;;;;;;2614001;39;20531;-71
2023/06/29 05:13:04;;;;;;;17.50;15.90;;;20.00;99.90;;;;;;2613536;54;20415;-72
2023/06/29 05:18:52;;;;;;;17.73;16.57;;;20.10;99.90;;;;;;2611525;54;20391;-72
2023/06/29 05:24:41;;;;;;;16.07;15.00;;;20.20;99.90;;;;;;2612987;54;20122;-74
2023/06/29 05:30:29;;;;;;;16.07;14.97;;;20.20;99.90;;;;;;2614217;54;20937;-73
2023/06/29 05:36:16;;;;;;;16.23;15.23;;;20.30;99.90;;;;;;2612800;54;20137;-73
2023/06/29 05:42:06;;;;;;;19.30;17.27;;;20.50;99.90;;;;;;2613266;54;20130;-73
2023/06/29 05:47:55;;;;;;;16.73;15.63;;;20.60;99.90;;;;;;2613743;54;20427;-73
2023/06/29 05:53:42;;;;;;;18.10;16.80;;;20.60;99.90;;;;;;2613287;54;20402;-74
2023/06/29 05:59:30;;;;;;;17.20;15.93;;;21.10;99.90;;;;;;2614417;31;20614;-74
2023/06/29 06:05:18;;;;;;;17.30;15.90;;;20.80;99.90;;;;;;2614942;46;20270;-73
2023/06/29 06:11:06;;;;;;;17.93;16.77;;;21.30;99.90;;;;;;2614354;39;20525;-73
2023/06/29 06:16:54;;;;;;;17.67;16.30;;;21.00;99.90;;;;;;2611906;54;20660;-73
2023/06/29 06:19:40;;;;;;;23.60;16.97;;;21.10;99.90;;;;;;2608232;54;20494;-73
2023/06/29 06:22:05;;;;;;;17.70;16.40;;;21.20;99.90;;;;;;2606865;54;20177;-73
2023/06/29 06:27:54;;;;;;;19.40;17.63;;;21.40;99.90;;;;;;2612538;39;20524;-74
2023/06/29 06:33:41;;;;;;;17.87;16.57;;;21.90;99.90;;;;;;2609767;54;21164;-73
2023/06/29 06:39:32;;;;;;;18.83;17.43;;;21.90;99.90;;;;;;2609754;39;20583;-74
2023/06/29 06:42:49;;;;;;;17.17;16.07;;;21.90;99.90;;;;;;2612027;54;21052;-73
2023/06/29 06:45:16;;;;;;;18.50;17.10;;;22.20;99.90;;;;;;2608817;54;20791;-73
2023/06/29 06:51:04;;;;;;;18.07;16.73;;;22.10;99.90;;;;;;2613260;54;20423;-73
2023/06/29 06:56:52;;;;;;;15.63;14.23;;;22.80;99.90;;;;;;2613074;54;20810;-72
2023/06/29 07:02:40;;;;;;;19.00;17.10;;;23.10;99.90;;;;;;2609412;54;20151;-72
2023/06/29 07:08:28;;;;;;;16.40;15.20;;;22.70;99.90;;;;;;2613296;54;20276;-72
2023/06/29 07:14:16;;;;;;;17.17;15.97;;;22.90;99.90;;;;;;2614262;54;20127;-72
2023/06/29 07:20:06;;;;;;;15.00;13.97;;;23.10;99.90;;;;;;2611623;54;20383;-72
2023/06/29 07:25:54;;;;;;;19.00;17.70;;;22.90;99.90;;;;;;2611572;54;20423;-72
2023/06/29 07:31:42;;;;;;;15.80;14.43;;;22.90;99.90;;;;;;2612440;54;20230;-73
2023/06/29 07:37:29;;;;;;;15.37;14.17;;;22.50;99.90;;;;;;2612229;54;20133;-72
2023/06/29 07:53:16;;;;;;;16.07;14.97;;;22.30;99.90;;;;;;2612242;54;20989;-72
2023/06/29 07:59:04;;;;;;;15.33;14.40;;;22.40;99.90;;;;;;2612925;54;20130;-72
2023/06/29 08:04:52;;;;;;;16.10;15.00;;;22.00;99.90;;;;;;2611919;54;20134;-72
2023/06/29 08:10:41;;;;;;;21.63;15.77;;;22.00;99.90;;;;;;2613790;54;20127;-71
2023/06/29 08:16:28;;;;;;;16.47;15.10;;;22.50;99.90;;;;;;2613892;54;20388;-72
2023/06/29 08:22:16;;;;;;;17.53;16.20;;;22.70;99.90;;;;;;2613778;54;20150;-71
2023/06/29 08:25:00;;;;;;;16.77;15.63;;;22.50;99.90;;;;;;2613151;54;20435;-72
2023/06/29 08:27:25;;;;;;;16.80;15.70;;;22.70;99.90;;;;;;2613447;54;20174;-73
2023/06/29 08:33:13;;;;;;;16.73;15.63;;;22.60;99.90;;;;;;2614369;54;20139;-73
2023/06/29 08:39:01;;;;;;;17.07;15.97;;;22.80;99.90;;;;;;2612423;54;20127;-72
2023/06/29 08:48:14;;;;;;;16.17;15.07;;;22.90;99.90;;;;;;2614117;54;20961;-73
2023/06/29 08:54:02;;;;;;;17.40;15.97;;;23.50;99.90;;;;;;2610854;54;20366;-71
2023/06/29 08:59:51;;;;;;;17.73;16.13;;;23.40;99.90;;;;;;2607324;54;20371;-71
2023/06/29 09:05:38;;;;;;;22.83;17.93;;;23.20;99.90;;;;;;2611051;54;20407;-72
2023/06/29 09:11:26;;;;;;;18.07;16.47;;;23.00;99.90;;;;;;2610399;54;20127;-72
2023/06/29 09:17:18;;;;;;;18.93;17.57;;;23.30;99.90;;;;;;2611076;54;20657;-73
2023/06/29 09:23:06;;;;;;;17.97;16.57;;;23.00;99.90;;;;;;2613315;54;20419;-72
2023/06/29 09:29:03;;;;;;;19.20;17.60;;;22.90;99.90;;;;;;2614444;46;20386;-73
2023/06/29 09:34:51;;;;;;;17.33;16.30;;;22.60;99.90;;;;;;2613098;54;20403;-72
2023/06/29 09:40:46;;;;;;;18.77;17.40;;;22.90;99.90;;;;;;2614286;54;20247;-72
2023/06/29 09:43:45;;;;;;;20.37;18.60;;;22.90;99.90;;;;;;2613790;54;20552;-73
2023/06/29 09:46:12;;;;;;;20.27;18.20;;;22.90;99.90;;;;;;2613647;54;20563;-72
2023/06/29 09:52:04;;;;;;;21.00;19.30;;;22.90;99.90;;;;;;2611063;54;20436;-72
2023/06/29 09:57:53;;;;;;;20.57;18.80;;;23.10;99.90;;;;;;2614848;54;20475;-72
2023/06/29 10:03:41;;;;;;;21.77;20.07;;;23.10;99.90;;;;;;2611714;54;20371;-73
2023/06/29 10:09:29;;;;;;;21.27;19.33;;;23.40;99.90;;;;;;2611454;54;20147;-72
2023/06/29 10:15:18;;;;;;;20.33;18.70;;;23.30;99.90;;;;;;2608718;54;20138;-73
2023/06/29 10:21:07;;;;;;;20.00;18.10;;;23.00;99.90;;;;;;2611402;54;20426;-73
2023/06/29 10:26:57;;;;;;;20.80;19.10;;;23.90;99.90;;;;;;2610934;54;20388;-72
2023/06/29 10:32:49;;;;;;;20.33;18.77;;;24.40;99.90;;;;;;2610189;54;20399;-72
2023/06/29 10:38:37;;;;;;;23.10;20.80;;;25.40;99.90;;;;;;2610304;54;20395;-72
2023/06/29 10:48:16;;;;;;;23.30;21.30;;;25.20;99.90;;;;;;2613253;39;20890;-70
2023/06/29 10:54:03;;;;;;;22.73;20.77;;;25.30;99.90;;;;;;2611320;54;20391;-70
2023/06/29 10:59:51;;;;;;;23.80;21.67;;;25.90;99.90;;;;;;2610939;54;20282;-70
2023/06/29 11:05:39;;;;;;;24.30;22.00;;;26.90;99.90;;;;;;2610155;54;20166;-69
2023/06/29 11:11:28;;;;;;;23.40;21.47;;;27.10;99.90;;;;;;2609635;54;21108;-70
2023/06/29 11:17:17;;;;;;;26.23;23.87;;;27.00;99.90;;;;;;2610969;54;20363;-70
2023/06/29 11:23:08;;;;;;;24.57;22.67;;;26.70;99.90;;;;;;2610125;54;20483;-69
2023/06/29 11:28:56;;;;;;;21.83;20.20;;;26.80;99.90;;;;;;2610451;54;20395;-69
2023/06/29 11:34:44;;;;;;;23.87;22.07;;;26.20;99.90;;;;;;2610206;54;20263;-69
2023/06/29 11:40:32;;;;;;;23.47;21.13;;;26.40;99.90;;;;;;2610784;54;20283;-69
2023/06/29 11:46:33;;;;;;;26.20;23.13;;;25.40;99.90;;;;;;2608799;54;20415;-69
2023/06/29 11:52:21;;;;;;;25.53;23.10;;;24.50;99.90;;;;;;2607863;54;20948;-69
2023/06/29 11:58:08;;;;;;;24.20;21.80;;;23.60;99.90;;;;;;2609402;39;20614;-69
2023/06/29 12:07:18;;;;;;;24.63;22.10;;;22.20;99.90;;;;;;2609413;54;20363;-71
2023/06/29 12:13:09;;;;;;;25.57;23.13;;;22.00;99.90;;;;;;2608818;54;20370;-70
2023/06/29 12:18:59;;;;;;;25.57;22.80;;;21.80;99.90;;;;;;2609719;54;20394;-70
2023/06/29 12:24:51;;;;;;;24.67;21.53;;;21.70;99.90;;;;;;2612750;54;20404;-69
2023/06/29 12:30:40;;;;;;;23.60;21.10;;;21.90;99.90;;;;;;2613157;54;20413;-70
2023/06/29 12:36:28;;;;;;;22.57;20.30;;;22.10;99.90;;;;;;2612558;54;20421;-70
2023/06/29 12:42:17;;;;;;;24.50;21.90;;;22.50;99.90;;;;;;2610100;54;20388;-70
2023/06/29 12:48:05;;;;;;;24.37;22.07;;;23.70;99.90;;;;;;2609742;46;20475;-69
2023/06/29 12:53:52;;;;;;;25.70;23.00;;;24.20;99.90;;;;;;2611548;54;20922;-70
2023/06/29 12:59:41;;;;;;;26.13;23.73;;;25.20;99.90;;;;;;2610445;54;20151;-70
2023/06/29 13:05:29;;;;;;;26.53;23.97;;;25.20;99.90;;;;;;2612996;39;20486;-70
2023/06/29 13:11:16;;;;;;;27.73;25.17;;;24.60;99.90;;;;;;2614545;54;20146;-70
2023/06/29 13:17:04;;;;;;;27.83;25.10;;;24.80;99.90;;;;;;2613322;31;20616;-68
2023/06/29 13:22:53;;;;;;;28.57;25.50;;;24.60;99.90;;;;;;2614703;54;21248;-70
2023/06/29 13:28:41;;;;;;;29.37;26.67;;;24.60;99.90;;;;;;2609982;54;20395;-70
2023/06/29 13:34:30;;;;;;;29.63;26.70;;;25.00;99.90;;;;;;2608173;54;20387;-70
2023/06/29 13:40:18;;;;;;;32.37;29.20;;;24.60;99.90;;;;;;2608583;54;20391;-70
2023/06/29 13:46:06;;;;;;;30.77;27.60;;;24.50;99.90;;;;;;2608950;54;20165;-69
2023/06/29 13:51:54;;;;;;;28.40;25.50;;;24.20;99.90;;;;;;2610796;54;20127;-70
2023/06/29 13:57:42;;;;;;;31.27;28.17;;;24.80;99.90;;;;;;2610001;54;20126;-70
2023/06/29 14:03:30;;;;;;;29.73;26.93;;;24.60;99.90;;;;;;2610888;54;20567;-70
2023/06/29 14:09:19;;;;;;;30.70;27.70;;;24.90;99.90;;;;;;2612956;39;20645;-69
2023/06/29 14:15:07;;;;;;;29.13;26.43;;;24.80;99.90;;;;;;2615349;39;20740;-70
2023/06/29 14:20:55;;;;;;;34.53;28.20;;;24.70;99.90;;;;;;2613278;39;20729;-70
2023/06/29 14:26:43;;;;;;;30.37;27.80;;;25.00;99.90;;;;;;2611131;54;20142;-69
2023/06/29 14:32:31;;;;;;;35.40;28.80;;;24.90;99.90;;;;;;2612459;54;20122;-71
2023/06/29 14:38:18;;;;;;;30.63;28.13;;;25.30;99.90;;;;;;2610462;54;20250;-70
2023/06/29 14:44:58;;;;;;;30.07;27.37;;;24.90;99.90;;;;;;2611140;54;20166;-70
2023/06/29 14:48:14;;;;;;;28.97;26.27;;;25.30;99.90;;;;;;2611837;54;20495;-70
2023/06/29 14:54:02;;;;;;;30.83;27.90;;;25.30;99.90;;;;;;2613514;54;20367;-70
2023/06/29 14:59:49;;;;;;;32.07;28.83;;;25.00;99.90;;;;;;2613470;54;20668;-70
2023/06/29 15:05:37;;;;;;;28.30;25.73;;;24.60;99.90;;;;;;2611999;39;21122;-69
2023/06/29 15:11:25;;;;;;;33.40;30.20;;;24.80;99.90;;;;;;2610905;54;20632;-69
2023/06/29 15:17:13;;;;;;;29.23;26.53;;;24.80;99.90;;;;;;2610104;54;20459;-69
2023/06/29 15:23:01;;;;;;;29.67;26.70;;;24.60;99.90;;;;;;2614702;54;20242;-70
2023/06/29 15:28:49;;;;;;;26.20;23.80;;;24.70;99.90;;;;;;2613892;54;20131;-70
2023/06/29 15:34:36;;;;;;;27.20;24.90;;;24.90;99.90;;;;;;2614219;54;20134;-70
2023/06/29 15:40:24;;;;;;;26.33;24.03;;;24.70;99.90;;;;;;2611854;54;20189;-70
2023/06/29 15:43:45;;;;;;;27.20;24.90;;;24.80;99.90;;;;;;2612757;39;20869;-69
2023/06/29 15:46:13;;;;;;;25.00;22.83;;;24.60;99.90;;;;;;2612179;54;20689;-70
2023/06/29 15:52:00;;;;;;;26.40;24.37;;;24.40;99.90;;;;;;2609638;54;20431;-69
2023/06/29 15:57:48;;;;;;;24.43;22.57;;;24.30;99.90;;;;;;2610883;54;20143;-70
2023/06/29 16:00:51;;;;;;;27.07;24.37;;;24.10;99.90;;;;;;2610224;47;20424;-70
2023/06/29 16:03:17;;;;;;;26.57;24.17;;;24.10;99.90;;;;;;2611112;47;20159;-71
2023/06/29 16:09:04;;;;;;;24.73;22.43;;;24.00;99.90;;;;;;2611415;54;20700;-69
2023/06/29 16:14:53;;;;;;;25.67;23.63;;;24.10;99.90;;;;;;2613486;54;20135;-70
2023/06/29 16:20:41;;;;;;;27.03;24.57;;;23.90;99.90;;;;;;2612070;54;20412;-69
2023/06/29 16:26:29;;;;;;;29.23;26.73;;;23.80;99.90;;;;;;2612926;54;20190;-70
2023/06/29 16:32:17;;;;;;;28.20;25.60;;;23.40;99.90;;;;;;2613672;54;20138;-70
2023/06/29 16:38:04;;;;;;;30.17;27.40;;;23.20;99.90;;;;;;2613861;54;20148;-70
2023/06/29 16:50:36;;;;;;;28.70;26.20;;;23.40;99.90;;;;;;2613963;54;20487;-69
2023/06/29 16:56:27;;;;;;;30.50;27.30;;;23.10;99.90;;;;;;2614574;54;20143;-70
2023/06/29 17:02:14;;;;;;;30.50;27.70;;;23.50;99.90;;;;;;2614566;54;20945;-69
2023/06/29 17:08:02;;;;;;;30.10;27.20;;;23.80;99.90;;;;;;2615101;39;20532;-70
2023/06/29 17:13:50;;;;;;;30.93;28.27;;;23.80;99.90;;;;;;2613955;54;20134;-69
2023/06/29 17:19:39;;;;;;;30.37;27.67;;;23.80;99.90;;;;;;2612193;39;20631;-70
2023/06/29 17:25:27;;;;;;;30.57;27.90;;;23.70;99.90;;;;;;2613726;54;20391;-69
2023/06/29 17:31:14;;;;;;;34.03;31.00;;;24.30;99.90;;;;;;2613700;54;20368;-70
2023/06/29 17:37:02;;;;;;;32.17;29.20;;;24.50;99.90;;;;;;2611541;54;20146;-69
2023/06/29 17:42:50;;;;;;;36.17;32.77;;;24.00;99.90;;;;;;2613885;54;20677;-70
2023/06/29 17:48:38;;;;;;;35.90;32.50;;;24.00;99.70;;;;;;2613655;31;20578;-70
2023/06/29 17:54:26;;;;;;;36.00;32.83;;;23.80;99.90;;;;;;2611099;54;20629;-70
2023/06/29 18:00:15;;;;;;;37.03;33.47;;;23.50;99.90;;;;;;2613580;54;20174;-70
2023/06/29 18:06:02;;;;;;;39.00;35.23;;;23.10;99.90;;;;;;2612832;54;20411;-69
2023/06/29 18:11:51;;;;;;;40.60;36.50;;;22.80;99.90;;;;;;2612934;54;20134;-71
2023/06/29 18:17:39;;;;;;;40.40;36.50;;;22.80;99.90;;;;;;2612481;54;20422;-69
2023/06/29 18:23:26;;;;;;;36.03;32.23;;;22.50;99.90;;;;;;2613189;39;20539;-69
2023/06/29 18:29:14;;;;;;;35.53;31.93;;;22.40;99.90;;;;;;2614439;54;20174;-69
2023/06/29 18:35:02;;;;;;;37.83;34.27;;;22.10;99.90;;;;;;2615393;54;20139;-69
2023/06/29 18:40:50;;;;;;;37.93;33.80;;;22.20;99.90;;;;;;2613948;31;20608;-70
2023/06/29 18:53:32;;;;;;;38.00;34.13;;;21.90;99.90;;;;;;2613721;54;20390;-69
2023/06/29 18:59:21;;;;;;;37.67;34.00;;;21.80;99.90;;;;;;2613000;54;21039;-69
2023/06/29 19:05:09;;;;;;;36.53;32.93;;;21.70;99.90;;;;;;2613311;54;20375;-70
2023/06/29 19:10:56;;;;;;;37.97;34.27;;;21.70;99.90;;;;;;2612917;54;20384;-70
2023/06/29 19:16:43;;;;;;;38.60;34.63;;;21.60;99.90;;;;;;2612907;54;20158;-69
2023/06/29 19:22:30;;;;;;;38.37;34.77;;;21.50;99.90;;;;;;2613368;54;20224;-70
2023/06/29 19:28:18;;;;;;;37.83;33.80;;;21.40;99.90;;;;;;2613897;54;20122;-69
2023/06/29 19:34:06;;;;;;;37.27;33.37;;;21.30;99.90;;;;;;2613982;54;20363;-69
2023/06/29 19:39:55;;;;;;;40.90;36.73;;;21.20;99.90;;;;;;2613953;54;20367;-71
2023/06/29 19:49:04;;;;;;;36.40;32.43;;;21.20;99.90;;;;;;2612500;54;20937;-70
2023/06/29 19:54:53;;;;;;;38.37;34.40;;;21.10;99.90;;;;;;2612284;39;20545;-69
2023/06/29 20:00:41;;;;;;;39.23;35.27;;;21.10;99.90;;;;;;2612743;54;20383;-70
2023/06/29 20:06:29;;;;;;;38.57;34.47;;;21.10;99.90;;;;;;2614193;39;20696;-69
2023/06/29 20:12:17;;;;;;;41.37;33.03;;;21.10;99.90;;;;;;2612735;39;20773;-69
2023/06/29 20:18:05;;;;;;;37.57;33.37;;;21.00;99.90;;;;;;2613812;54;20193;-69
2023/06/29 20:23:52;;;;;;;41.07;34.20;;;21.00;99.90;;;;;;2613659;54;20151;-68
2023/06/29 20:29:40;;;;;;;31.30;27.90;;;20.90;99.90;;;;;;2614751;54;20387;-70
2023/06/29 20:35:30;;;;;;;27.83;25.10;;;20.50;99.90;;;;;;2614885;54;20794;-69
2023/06/29 20:41:17;;;;;;;28.00;25.00;;;20.20;99.90;;;;;;2615490;31;20788;-70
2023/06/29 20:44:32;;;;;;;27.80;24.90;;;20.20;99.90;;;;;;2613810;54;20412;-70
2023/06/29 20:47:02;;;;;;;25.67;22.07;;;20.10;99.90;;;;;;2613933;46;20197;-69
2023/06/29 20:52:51;;;;;;;24.53;21.93;;;19.90;99.90;;;;;;2614819;39;20778;-69
2023/06/29 20:58:39;;;;;;;24.33;21.83;;;19.70;99.90;;;;;;2614831;54;20384;-69
2023/06/29 21:04:27;;;;;;;24.80;21.10;;;19.50;99.90;;;;;;2612440;54;20184;-70
2023/06/29 21:10:15;;;;;;;26.30;21.80;;;19.20;99.90;;;;;;2611236;54;20484;-70
2023/06/29 21:16:03;;;;;;;29.13;22.80;;;19.10;99.90;;;;;;2614065;54;20182;-71
2023/06/29 21:21:51;;;;;;;28.27;22.77;;;19.10;99.90;;;;;;2614601;54;20408;-70
2023/06/29 21:27:40;;;;;;;24.60;21.50;;;19.00;99.90;;;;;;2613873;54;20426;-71
2023/06/29 21:33:28;;;;;;;22.67;19.50;;;19.00;99.90;;;;;;2614710;54;20416;-71
2023/06/29 21:39:16;;;;;;;21.00;18.53;;;18.80;99.90;;;;;;2614021;54;20151;-71
2023/06/29 21:49:00;;;;;;;23.67;18.20;;;18.80;99.90;;;;;;2614239;54;20933;-70
2023/06/29 21:54:47;;;;;;;21.53;17.70;;;18.80;99.90;;;;;;2613574;54;20407;-71
2023/06/29 22:00:35;;;;;;;22.10;17.27;;;18.80;99.90;;;;;;2613098;54;20255;-71
2023/06/29 22:06:23;;;;;;;19.50;17.00;;;18.70;99.90;;;;;;2614026;39;20943;-71
2023/06/29 22:12:11;;;;;;;23.80;17.00;;;18.60;99.90;;;;;;2613888;54;20471;-70
2023/06/29 22:18:03;;;;;;;21.83;17.60;;;18.50;99.90;;;;;;2615233;54;20886;-71
2023/06/29 22:23:52;;;;;;;17.67;15.63;;;18.50;99.90;;;;;;2614265;54;20388;-71
2023/06/29 22:29:40;;;;;;;14.83;13.23;;;18.40;99.90;;;;;;2614444;54;20475;-71
2023/06/29 22:35:29;;;;;;;11.23;9.83;;;18.30;99.90;;;;;;2614275;54;20183;-71
2023/06/29 22:41:17;;;;;;;12.10;10.90;;;18.30;99.90;;;;;;2614769;54;20390;-71
2023/06/29 22:44:31;;;;;;;11.13;9.67;;;18.20;99.90;;;;;;2614120;54;20400;-71
2023/06/29 22:46:57;;;;;;;10.20;9.43;;;18.30;99.90;;;;;;2613396;54;20392;-71
2023/06/29 22:52:44;;;;;;;8.43;7.53;;;18.20;99.90;;;;;;2611682;54;20720;-70
2023/06/29 22:58:32;;;;;;;8.10;7.60;;;18.10;99.90;;;;;;2613477;54;20126;-70
2023/06/29 23:04:20;;;;;;;7.47;6.97;;;18.00;99.90;;;;;;2614483;39;20567;-71
2023/06/29 23:10:08;;;;;;;8.40;7.80;;;17.80;99.90;;;;;;2614292;54;20220;-71
2023/06/29 23:15:59;;;;;;;9.10;8.40;;;17.80;99.90;;;;;;2612932;54;20387;-70
2023/06/29 23:21:47;;;;;;;8.27;7.77;;;17.70;99.90;;;;;;2614739;54;20367;-71
2023/06/29 23:27:37;;;;;;;8.93;8.33;;;17.70;99.90;;;;;;2613223;54;20221;-71
2023/06/29 23:33:24;;;;;;;7.73;7.23;;;17.60;99.90;;;;;;2611760;54;20375;-71
2023/06/29 23:39:12;;;;;;;8.80;8.20;;;17.60;99.90;;;;;;2610850;54;20278;-69
2023/06/29 23:48:59;;;;;;;8.27;7.77;;;17.50;99.90;;;;;;2613962;54;20386;-71
2023/06/29 23:54:47;;;;;;;8.00;7.50;;;17.20;99.90;;;;;;2614403;54;20399;-71
